Time;durP1;ratioP1;P1;durP2;ratioP2;P2;SDS_P1;SDS_P2;PMS_P1;PMS_P2;Temp;Humidity;BMP_temperature;BMP_pressure;BME280_temperature;BME280_humidity;BME280_pressure;Samples;Min_cycle;Max_cycle;Signal;HPM_P1;HPM_P2
2023/12/26 00:01:58;;;;;;;0.00;0.00;;;;;;;8.29;100.00;99743.19;4814770;29;20787;-81
2023/12/26 00:04:47;;;;;;;0.00;0.00;;;;;;;8.54;100.00;99794.25;4833894;29;20097;-81
2023/12/26 00:07:26;;;;;;;;;;;;;;;;;;;;;
2023/12/26 00:09:54;;;;;;;0.00;0.00;;;;;;;8.27;100.00;99750.00;4839360;29;20094;-82
2023/12/26 00:12:23;;;;;;;0.00;0.00;;;;;;;8.43;100.00;99783.56;4847973;29;20034;-77
2023/12/26 00:14:48;;;;;;;0.00;0.00;;;;;;;8.28;100.00;99776.13;4846975;29;20111;-76
2023/12/26 00:17:14;;;;;;;0.00;0.00;;;;;;;8.28;100.00;99800.66;4848475;29;20058;-79
2023/12/26 00:19:51;;;;;;;0.00;0.00;;;;;;;8.24;100.00;99814.00;4832401;29;20049;-83
2023/12/26 00:22:16;;;;;;;0.00;0.00;;;;;;;8.02;100.00;99778.78;4829055;29;20030;-74
2023/12/26 00:24:42;;;;;;;0.00;0.00;;;;;;;8.06;100.00;99790.78;4806193;29;20034;-74
2023/12/26 00:27:07;;;;;;;0.00;0.00;;;;;;;8.06;100.00;99788.06;4832291;29;20030;-74
2023/12/26 00:29:34;;;;;;;0.00;0.00;;;;;;;8.08;100.00;99791.31;4831898;29;20457;-74
2023/12/26 00:32:02;;;;;;;0.00;0.00;;;;;;;7.96;100.00;99774.38;4835164;29;20030;-76
2023/12/26 00:34:28;;;;;;;0.00;0.00;;;;;;;8.05;100.00;99791.84;4819855;29;20026;-74
2023/12/26 00:36:53;;;;;;;0.00;0.00;;;;;;;7.99;100.00;99785.56;4822226;29;20060;-76
2023/12/26 00:39:19;;;;;;;0.00;0.00;;;;;;;7.99;100.00;99790.19;4820836;29;20030;-74
2023/12/26 00:41:47;;;;;;;0.00;0.00;;;;;;;7.91;100.00;99787.97;4827792;29;20129;-75
2023/12/26 00:44:13;;;;;;;0.00;0.00;;;;;;;7.86;100.00;99781.41;4822564;29;20475;-75
2023/12/26 00:46:38;;;;;;;0.00;0.00;;;;;;;7.95;100.00;99808.94;4823644;29;20137;-75
2023/12/26 00:49:04;;;;;;;0.00;0.00;;;;;;;7.91;100.00;99807.00;4817876;29;20037;-75
2023/12/26 00:51:32;;;;;;;0.00;0.00;;;;;;;7.97;100.00;99817.69;4831428;29;20030;-75
2023/12/26 00:53:58;;;;;;;0.00;0.00;;;;;;;8.02;100.00;99828.59;4837107;29;20129;-74
2023/12/26 00:56:23;;;;;;;0.00;0.00;;;;;;;7.91;100.00;99804.28;4791458;29;20125;-74
2023/12/26 00:58:51;;;;;;;0.00;0.00;;;;;;;8.02;100.00;99811.44;4812604;29;20098;-74
2023/12/26 01:01:16;;;;;;;0.00;0.00;;;;;;;8.16;100.00;99820.78;4839452;29;20030;-74
2023/12/26 01:03:44;;;;;;;0.00;0.00;;;;;;;8.21;100.00;99822.72;4801416;29;20113;-76
2023/12/26 01:06:17;;;;;;;0.00;0.00;;;;;;;8.18;100.00;99813.16;4838829;29;20034;-75
2023/12/26 01:08:42;;;;;;;0.00;0.00;;;;;;;7.97;100.00;99805.97;4831195;29;20453;-75
2023/12/26 01:11:08;;;;;;;0.00;0.00;;;;;;;8.01;100.00;99809.78;4843079;29;20129;-76
2023/12/26 01:13:34;;;;;;;0.00;0.00;;;;;;;7.80;100.00;99795.25;4829848;29;20124;-75
2023/12/26 01:16:19;;;;;;;0.00;0.00;;;;;;;7.93;100.00;99816.56;4828936;29;20393;-76
2023/12/26 01:18:48;;;;;;;0.00;0.00;;;;;;;7.92;100.00;99817.66;4827856;29;20033;-74
2023/12/26 01:28:48;;;;;;;0.05;0.05;;;;;;;7.77;100.00;99818.38;4826948;29;20037;-77
2023/12/26 01:34:41;;;;;;;0.00;0.00;;;;;;;7.78;100.00;99840.97;4832553;29;20045;-78
2023/12/26 01:37:08;;;;;;;0.00;0.00;;;;;;;7.57;100.00;99820.94;4839322;29;20072;-77
2023/12/26 01:39:34;;;;;;;0.00;0.00;;;;;;;7.67;100.00;99832.72;4815782;29;20125;-81
2023/12/26 01:42:09;;;;;;;0.00;0.00;;;;;;;7.40;100.00;99797.41;4838353;29;20469;-79
2023/12/26 01:49:21;;;;;;;0.10;0.10;;;;;;;7.25;100.00;99781.81;4795418;29;20149;-79
2023/12/26 01:51:58;;;;;;;0.00;0.00;;;;;;;7.42;100.00;99811.59;4793181;29;20054;-77
2023/12/26 01:54:38;;;;;;;0.00;0.00;;;;;;;7.34;100.00;99801.19;4792293;29;20118;-76
2023/12/26 01:58:03;;;;;;;0.00;0.00;;;;;;;7.25;100.00;99797.31;4796360;29;20035;-77
2023/12/26 02:01:00;;;;;;;0.00;0.00;;;;;;;7.32;100.00;99814.22;4777289;29;20119;-77
2023/12/26 02:03:26;;;;;;;0.00;0.00;;;;;;;7.28;100.00;99818.53;4810246;29;20072;-77
2023/12/26 02:06:05;;;;;;;0.00;0.00;;;;;;;7.46;100.00;99830.91;4822475;29;20496;-75
2023/12/26 02:08:38;;;;;;;0.00;0.00;;;;;;;7.27;100.00;99827.78;4826776;29;20029;-75
2023/12/26 02:12:12;;;;;;;0.00;0.00;;;;;;;7.29;100.00;99844.66;4824581;29;20752;-76
2023/12/26 02:15:19;;;;;;;0.00;0.00;;;;;;;7.07;100.00;99829.25;4824650;29;20474;-76
2023/12/26 02:18:21;;;;;;;0.00;0.00;;;;;;;7.02;100.00;99842.75;4816380;29;20049;-77
2023/12/26 02:21:43;;;;;;;;;;;;;;;;;;;;;
2023/12/26 02:24:31;;;;;;;0.10;0.10;;;;;;;6.99;100.00;99848.72;4827368;29;20062;-76
2023/12/26 02:27:00;;;;;;;0.00;0.00;;;;;;;6.95;100.00;99859.28;4818616;29;20470;-76
2023/12/26 02:29:30;;;;;;;0.00;0.00;;;;;;;6.99;100.00;99881.34;4840055;29;20042;-77
2023/12/26 02:31:59;;;;;;;0.00;0.00;;;;;;;6.93;100.00;99888.63;4802026;29;20557;-77
2023/12/26 02:34:42;;;;;;;;;;;;;;;;;;;;;
2023/12/26 02:37:08;;;;;;;0.00;0.00;;;;;;;6.71;100.00;99882.41;4822607;29;20026;-76
2023/12/26 02:40:00;;;;;;;0.00;0.00;;;;;;;6.99;100.00;99935.72;4814118;29;20450;-77
2023/12/26 02:42:36;;;;;;;0.00;0.00;;;;;;;6.68;100.00;99897.31;4822973;29;20045;-77
2023/12/26 02:45:48;;;;;;;0.00;0.00;;;;;;;6.79;100.00;99931.69;4824093;29;20030;-76
2023/12/26 02:48:21;;;;;;;0.00;0.00;;;;;;;6.82;100.00;99938.53;4824321;29;20129;-77
2023/12/26 02:50:53;;;;;;;0.00;0.00;;;;;;;6.70;100.00;99938.66;4843186;29;20116;-78
2023/12/26 02:53:36;;;;;;;0.00;0.00;;;;;;;6.59;100.00;99926.00;4828898;29;20034;-77
2023/12/26 02:56:02;;;;;;;0.00;0.00;;;;;;;6.74;100.00;99966.94;4827704;29;20070;-77
2023/12/26 02:58:33;;;;;;;0.00;0.00;;;;;;;6.36;100.00;99913.47;4832816;29;20081;-76
2023/12/26 03:01:01;;;;;;;0.00;0.00;;;;;;;6.23;100.00;99917.34;4836612;29;20026;-77
2023/12/26 03:06:45;;;;;;;0.00;0.00;;;;;;;6.25;100.00;99939.63;4827708;29;20042;-77
2023/12/26 03:09:17;;;;;;;0.00;0.00;;;;;;;6.20;100.00;99939.56;4840692;29;20028;-76
2023/12/26 03:11:42;;;;;;;0.00;0.00;;;;;;;6.29;100.00;99948.94;4826675;29;20038;-77
2023/12/26 03:14:17;;;;;;;0.05;0.05;;;;;;;6.42;100.00;99958.63;4838445;29;20206;-76
2023/12/26 03:16:52;;;;;;;0.00;0.00;;;;;;;6.53;100.00;99956.91;4826335;29;20051;-77
2023/12/26 03:19:28;;;;;;;0.00;0.00;;;;;;;6.65;100.00;99979.31;4825566;29;20045;-76
2023/12/26 03:22:21;;;;;;;;;;;;;;;;;;;;;
2023/12/26 03:25:08;;;;;;;;;;;;;;;;;;;;;
2023/12/26 03:28:08;;;;;;;;;;;;;;;;;;;;;
2023/12/26 03:30:34;;;;;;;0.00;0.00;;;;;;;6.96;100.00;99994.13;4837621;29;20034;-78
2023/12/26 03:33:03;;;;;;;0.00;0.00;;;;;;;7.10;100.00;99997.28;4830931;29;20036;-78
2023/12/26 03:35:31;;;;;;;0.00;0.00;;;;;;;7.08;100.00;99977.72;4814246;29;20042;-76
2023/12/26 03:37:59;;;;;;;0.00;0.00;;;;;;;7.38;100.00;99998.16;4816646;29;20045;-77
2023/12/26 03:40:25;;;;;;;0.00;0.00;;;;;;;7.42;100.00;100004.75;4841681;29;20093;-76
2023/12/26 03:42:55;;;;;;;0.00;0.00;;;;;;;7.36;100.00;99994.03;4834560;29;20820;-77
2023/12/26 03:50:16;;;;;;;0.00;0.00;;;;;;;7.23;100.00;100000.69;4740325;30;20072;-78
2023/12/26 03:52:59;;;;;;;0.10;0.10;;;;;;;6.84;100.00;99949.94;4752735;29;20567;-79
2023/12/26 03:55:28;;;;;;;0.00;0.00;;;;;;;6.82;100.00;99958.34;4813339;29;20037;-79
2023/12/26 03:58:03;;;;;;;;;;;;;;;;;;;;;
2023/12/26 04:07:35;;;;;;;0.00;0.00;;;;;;;6.56;100.00;99964.53;4732907;30;20049;-81
2023/12/26 04:10:11;;;;;;;0.00;0.00;;;;;;;6.62;100.00;99985.25;4752737;29;20043;-77
2023/12/26 04:13:07;;;;;;;0.00;0.00;;;;;;;6.81;100.00;100035.53;4781347;29;20526;-80
2023/12/26 04:15:43;;;;;;;;;;;;;;;;;;;;;
2023/12/26 04:18:09;;;;;;;0.00;0.00;;;;;;;6.46;100.00;99987.75;4842152;29;20037;-79
2023/12/26 04:21:07;;;;;;;0.00;0.00;;;;;;;6.42;100.00;99989.31;4835203;29;20040;-77
2023/12/26 04:24:03;;;;;;;0.00;0.00;;;;;;;6.63;100.00;100041.25;4827074;29;20030;-78
2023/12/26 04:26:31;;;;;;;0.00;0.00;;;;;;;6.24;100.00;99992.31;4827106;29;20053;-78
2023/12/26 04:29:24;;;;;;;0.00;0.00;;;;;;;6.15;100.00;99985.63;4837749;29;20041;-79
2023/12/26 04:32:06;;;;;;;0.00;0.00;;;;;;;6.30;100.00;100015.75;4840161;29;20575;-78
2023/12/26 04:35:12;;;;;;;0.00;0.00;;;;;;;6.07;100.00;99989.59;4832819;29;20035;-78
2023/12/26 04:38:00;;;;;;;;;;;;;;;;;;;;;
2023/12/26 04:40:34;;;;;;;0.00;0.00;;;;;;;6.26;100.00;100048.03;4823018;29;20046;-78
2023/12/26 04:43:09;;;;;;;0.00;0.00;;;;;;;5.97;100.00;99998.38;4804962;29;20104;-78
2023/12/26 04:45:43;;;;;;;0.00;0.00;;;;;;;6.05;100.00;100019.69;4831917;29;20045;-78
2023/12/26 04:48:19;;;;;;;0.10;0.10;;;;;;;6.20;100.00;100059.03;4840224;29;20030;-79
2023/12/26 04:58:36;;;;;;;0.10;0.10;;;;;;;5.66;100.00;99984.25;4853942;29;20041;-79
2023/12/26 05:05:07;;;;;;;0.10;0.10;;;;;;;6.01;100.00;100056.53;4799302;29;20092;-80
2023/12/26 05:11:45;;;;;;;;;;;;;;;;;;;;;
2023/12/26 05:14:17;;;;;;;0.00;0.00;;;;;;;5.78;100.00;100024.88;4818917;29;20035;-79
2023/12/26 05:16:50;;;;;;;0.00;0.00;;;;;;;5.89;100.00;100058.47;4823331;29;20085;-80
2023/12/26 05:20:07;;;;;;;;;;;;;;;;;;;;;
2023/12/26 05:22:52;;;;;;;;;;;;;;;;;;;;;
2023/12/26 05:25:24;;;;;;;0.10;0.10;;;;;;;5.92;100.00;100052.56;4827209;29;20030;-80
2023/12/26 05:31:12;;;;;;;0.00;0.00;;;;;;;5.78;100.00;100030.31;4833598;29;20378;-81
2023/12/26 05:33:37;;;;;;;0.00;0.00;;;;;;;5.91;100.00;100056.34;4824792;29;20034;-80
2023/12/26 05:36:24;;;;;;;0.00;0.00;;;;;;;5.93;100.00;100055.03;4813644;29;20125;-81
2023/12/26 05:38:54;;;;;;;0.00;0.00;;;;;;;5.87;100.00;100045.16;4834671;29;20045;-79
2023/12/26 05:48:22;;;;;;;0.00;0.00;;;;;;;5.75;100.00;100047.94;4830218;29;20042;-78
2023/12/26 05:50:58;;;;;;;0.00;0.00;;;;;;;5.67;100.00;100045.59;4833098;29;20030;-79
2023/12/26 05:53:31;;;;;;;0.00;0.00;;;;;;;5.71;100.00;100035.06;4824463;29;20455;-82
2023/12/26 05:56:45;;;;;;;;;;;;;;;;;;;;;
2023/12/26 06:09:40;;;;;;;0.00;0.00;;;;;;;5.77;100.00;100081.06;4792093;29;20031;-79
2023/12/26 06:13:25;;;;;;;0.00;0.00;;;;;;;6.01;100.00;100129.84;4802140;29;20058;-78
2023/12/26 06:16:33;;;;;;;;;;;;;;;;;;;;;
2023/12/26 06:42:53;;;;;;;0.00;0.00;;;;;;;5.90;100.00;100136.94;4786420;29;20541;-80
2023/12/26 06:45:56;;;;;;;0.00;0.00;;;;;;;5.85;100.00;100125.16;4796093;29;20047;-83
2023/12/26 06:48:24;;;;;;;0.10;0.10;;;;;;;6.00;100.00;100165.38;4795434;29;20031;-79
2023/12/26 06:50:50;;;;;;;0.00;0.00;;;;;;;5.95;100.00;100187.78;4796112;29;20034;-81
2023/12/26 06:53:15;;;;;;;0.00;0.00;;;;;;;5.77;100.00;100170.59;4807754;29;20049;-83
2023/12/26 06:55:41;;;;;;;0.00;0.00;;;;;;;5.77;100.00;100158.94;4809319;29;20390;-82
2023/12/26 07:01:50;;;;;;;0.00;0.00;;;;;;;5.95;100.00;100166.88;4828017;29;20400;-83
2023/12/26 08:18:30;;;;;;;;;;;;;;;;;;;;;
2023/12/26 08:21:03;;;;;;;0.00;0.00;;;;;;;4.52;100.00;100294.50;4831260;29;20467;-77
2023/12/26 08:24:12;;;;;;;0.00;0.00;;;;;;;4.61;100.00;100336.47;4828415;29;20025;-77
2023/12/26 08:27:36;;;;;;;;;;;;;;;;;;;;;
2023/12/26 08:40:48;;;;;;;0.00;0.00;;;;;;;4.75;100.00;100331.69;4826016;29;20081;-78
2023/12/26 08:43:44;;;;;;;;;;;;;;;;;;;;;
2023/12/26 08:46:40;;;;;;;;;;;;;;;;;;;;;
2023/12/26 08:49:08;;;;;;;0.00;0.00;;;;;;;4.84;100.00;100362.00;4836593;29;20080;-77
2023/12/26 08:52:19;;;;;;;;;;;;;;;;;;;;;
2023/12/26 08:58:28;;;;;;;0.10;0.10;;;;;;;5.01;100.00;100384.69;4831695;29;20046;-76
2023/12/26 09:01:09;;;;;;;;;;;;;;;;;;;;;
2023/12/26 09:03:47;;;;;;;;;;;;;;;;;;;;;
2023/12/26 09:14:00;;;;;;;;;;;;;;;;;;;;;
2023/12/26 09:17:01;;;;;;;;;;;;;;;;;;;;;
2023/12/26 09:19:48;;;;;;;0.10;0.10;;;;;;;5.75;100.00;100397.13;4819085;29;20121;-76
2023/12/26 09:23:19;;;;;;;;;;;;;;;;;;;;;
2023/12/26 09:29:45;;;;;;;0.00;0.00;;;;;;;5.86;100.00;100400.91;4814066;29;20052;-75
2023/12/26 09:32:45;;;;;;;0.00;0.00;;;;;;;5.86;100.00;100392.78;4814419;29;20032;-77
2023/12/26 09:38:59;;;;;;;;;;;;;;;;;;;;;
2023/12/26 09:41:36;;;;;;;0.00;0.00;;;;;;;6.33;100.00;100435.41;4825789;29;20026;-79
2023/12/26 09:44:10;;;;;;;0.00;0.00;;;;;;;6.26;100.00;100421.94;4821955;29;20469;-77
2023/12/26 09:46:39;;;;;;;0.00;0.00;;;;;;;6.53;100.00;100459.50;4827595;29;20070;-77
2023/12/26 09:49:15;;;;;;;;;;;;;;;;;;;;;
2023/12/26 09:51:47;;;;;;;0.00;0.00;;;;;;;6.71;100.00;100472.91;4828555;29;20034;-77
2023/12/26 09:54:13;;;;;;;0.00;0.00;;;;;;;6.65;100.00;100457.56;4834741;29;20033;-77
2023/12/26 09:56:54;;;;;;;0.00;0.00;;;;;;;7.03;100.00;100507.81;4824416;29;20412;-79
2023/12/26 09:59:34;;;;;;;0.00;0.00;;;;;;;6.97;100.00;100476.97;4820485;29;20027;-77
2023/12/26 10:02:49;;;;;;;0.10;0.10;;;;;;;7.48;100.00;100522.59;4820789;29;20048;-79
2023/12/26 10:05:57;;;;;;;;;;;;;;;;;;;;;
2023/12/26 10:08:42;;;;;;;0.00;0.00;;;;;;;7.60;100.00;100525.25;4823861;29;20030;-77
2023/12/26 10:14:42;;;;;;;;;;;;;;;;;;;;;
2023/12/26 10:17:33;;;;;;;0.00;0.00;;;;;;;7.55;100.00;100528.72;4827175;29;20046;-77
2023/12/26 10:20:34;;;;;;;0.10;0.10;;;;;;;7.91;100.00;100569.38;4818201;29;20370;-78
2023/12/26 10:30:43;;;;;;;0.00;0.00;;;;;;;7.77;100.00;100539.72;4834022;29;20631;-78
2023/12/26 10:44:00;;;;;;;;;;;;;;;8.09;97.30;100561.00;4791412;29;20046;-80
2023/12/26 15:17:29;;;;;;;0.00;0.00;;;;;;;8.23;81.44;100541.59;4699941;27;20050;-78
2023/12/26 15:20:56;;;;;;;0.00;0.00;;;;;;;8.08;81.89;100542.97;4853525;29;20037;-81
2023/12/26 15:23:44;;;;;;;0.00;0.00;;;;;;;8.21;82.86;100583.53;4847681;29;20037;-81
2023/12/26 15:26:14;;;;;;;0.00;0.00;;;;;;;8.02;83.79;100571.22;4846113;29;20022;-78
2023/12/26 15:28:41;;;;;;;0.00;0.00;;;;;;;7.67;84.29;100534.09;4843707;29;20094;-78
2023/12/26 15:31:14;;;;;;;0.00;0.00;;;;;;;7.80;84.52;100566.47;4850861;29;20052;-78
2023/12/26 15:33:39;;;;;;;0.10;0.10;;;;;;;7.60;85.50;100547.03;4841392;29;20030;-77
2023/12/26 15:36:05;;;;;;;0.00;0.00;;;;;;;7.66;85.54;100560.47;4833104;29;20535;-75
2023/12/26 15:38:31;;;;;;;0.00;0.00;;;;;;;7.62;85.51;100564.78;4851006;29;20038;-77
2023/12/26 15:41:23;;;;;;;0.00;0.00;;;;;;;7.40;86.37;100534.66;4860132;29;20088;-79
2023/12/26 15:44:23;;;;;;;0.00;0.00;;;;;;;7.50;86.82;100567.53;4839869;29;20049;-78
2023/12/26 15:46:54;;;;;;;0.00;0.00;;;;;;;7.41;87.51;100570.88;4843909;29;20097;-78
2023/12/26 15:50:13;;;;;;;;;;;;;;;;;;;;;
2023/12/26 15:55:51;;;;;;;0.10;0.10;;;;;;;7.24;89.55;100574.38;4858015;29;20045;-79
2023/12/26 15:58:19;;;;;;;0.00;0.00;;;;;;;6.84;89.52;100514.50;4861823;29;20040;-81
2023/12/26 16:01:00;;;;;;;;;;;;;;;;;;;;;
2023/12/26 16:03:51;;;;;;;;;;;;;;;;;;;;;
2023/12/26 16:10:18;;;;;;;;;;;;;;;;;;;;;
2023/12/26 16:12:57;;;;;;;0.00;0.00;;;;;;;6.59;91.96;100564.50;4855476;29;20033;-80
2023/12/26 16:15:58;;;;;;;0.00;0.00;;;;;;;6.38;92.56;100547.72;4840061;29;20030;-78
2023/12/26 16:18:38;;;;;;;;;;;;;;;;;;;;;
2023/12/26 16:21:06;;;;;;;0.00;0.00;;;;;;;6.56;94.10;100579.38;4831083;29;20029;-80
2023/12/26 16:23:54;;;;;;;0.00;0.00;;;;;;;6.26;94.65;100536.00;4860095;29;20026;-78
2023/12/26 16:26:33;;;;;;;;;;;;;;;;;;;;;
2023/12/26 16:29:11;;;;;;;0.00;0.00;;;;;;;6.19;95.31;100535.28;4852038;29;20391;-79
2023/12/26 16:31:39;;;;;;;0.00;0.00;;;;;;;6.13;95.35;100526.19;4861000;29;20492;-79
2023/12/26 16:36:53;;;;;;;0.10;0.10;;;;;;;6.16;96.17;100546.63;4844162;29;20120;-79
2023/12/26 16:39:27;;;;;;;0.00;0.00;;;;;;;5.96;96.83;100515.16;4849997;29;20025;-79
2023/12/26 16:42:09;;;;;;;0.00;0.00;;;;;;;6.18;97.63;100560.81;4864935;29;20020;-78
2023/12/26 16:44:53;;;;;;;0.00;0.00;;;;;;;6.00;97.68;100538.09;4843272;29;20028;-78
2023/12/26 16:48:41;;;;;;;;;;;;;;;;;;;;;
2023/12/26 16:55:20;;;;;;;0.10;0.10;;;;;;;6.07;98.50;100570.56;4829775;29;20043;-83
2023/12/26 16:57:50;;;;;;;0.00;0.00;;;;;;;6.03;99.43;100575.63;4806219;29;20140;-83
2023/12/26 17:00:18;;;;;;;0.00;0.00;;;;;;;5.99;99.75;100563.59;4819552;29;20030;-79
2023/12/26 17:02:49;;;;;;;0.10;0.10;;;;;;;5.94;99.83;100566.13;4818980;29;20119;-81
2023/12/26 17:05:15;;;;;;;0.00;0.00;;;;;;;5.84;100.00;100538.72;4820391;29;20030;-80
2023/12/26 17:07:42;;;;;;;0.00;0.00;;;;;;;5.95;100.00;100556.94;4829423;29;20385;-80
2023/12/26 17:10:21;;;;;;;0.00;0.00;;;;;;;5.90;100.00;100538.63;4853658;29;20025;-80
2023/12/26 17:13:06;;;;;;;0.10;0.10;;;;;;;5.87;100.00;100540.97;4854368;29;20051;-79
2023/12/26 17:18:36;;;;;;;0.00;0.00;;;;;;;5.85;100.00;100524.09;4851102;29;20045;-79
2023/12/26 17:21:32;;;;;;;;;;;;;;;;;;;;;
2023/12/26 17:24:20;;;;;;;0.00;0.00;;;;;;;5.86;100.00;100504.03;4854286;29;20041;-80
2023/12/26 17:27:37;;;;;;;;;;;;;;;;;;;;;
2023/12/26 17:30:04;;;;;;;0.00;0.00;;;;;;;6.13;100.00;100537.03;4822077;29;20042;-80
2023/12/26 17:32:47;;;;;;;0.10;0.10;;;;;;;6.20;100.00;100548.63;4818644;29;20072;-79
2023/12/26 17:35:16;;;;;;;0.00;0.00;;;;;;;6.05;100.00;100516.50;4841113;29;20149;-79
2023/12/26 17:37:58;;;;;;;0.00;0.00;;;;;;;6.27;100.00;100548.53;4835607;29;20449;-78
2023/12/26 17:41:25;;;;;;;;;;;;;;;;;;;;;
2023/12/26 17:44:14;;;;;;;0.00;0.00;;;;;;;6.07;100.00;100511.66;4859676;29;20096;-82
2023/12/26 17:56:52;;;;;;;0.00;0.00;;;;;;;6.43;100.00;100558.69;4888949;29;20077;-80
2023/12/26 18:10:26;;;;;;;0.00;0.00;;;;;;;6.29;100.00;100573.53;4782625;29;20085;-81
2023/12/26 18:12:52;;;;;;;0.00;0.00;;;;;;;6.32;100.00;100578.50;4780990;29;20039;-80
2023/12/26 18:28:07;;;;;;;;;;;;;;;;;;;;;
2023/12/26 18:31:45;;;;;;;0.00;0.00;;;;;;;6.04;100.00;100503.97;4842702;29;20034;-80
2023/12/26 18:35:13;;;;;;;;;;;;;;;;;;;;;
2023/12/26 18:38:29;;;;;;;0.00;0.00;;;;;;;6.20;100.00;100526.06;4834580;29;20029;-79
2023/12/26 18:41:18;;;;;;;0.00;0.00;;;;;;;6.28;100.00;100547.47;4833391;29;20086;-81
2023/12/26 18:47:19;;;;;;;0.00;0.00;;;;;;;6.31;100.00;100562.44;4808553;29;20086;-80
2023/12/26 18:49:50;;;;;;;0.00;0.00;;;;;;;5.98;100.00;100512.25;4835903;29;20046;-82
2023/12/26 19:00:11;;;;;;;;;;;;;;;;;;;;;
2023/12/26 19:10:05;;;;;;;0.10;0.10;;;;;;;6.25;100.00;100507.19;4748329;30;20036;-79
2023/12/26 19:13:05;;;;;;;;;;;;;;;;;;;;;
2023/12/26 19:16:36;;;;;;;;;;;;;;;;;;;;;
2023/12/26 20:08:59;;;;;;;0.00;0.00;;;;;;;6.58;100.00;100462.28;5519784;24;19928;-77
2023/12/26 20:12:01;;;;;;;0.00;0.00;;;;;;;6.57;100.00;100449.78;4840148;29;20785;-79
2023/12/26 20:14:27;;;;;;;0.00;0.00;;;;;;;6.59;100.00;100450.38;4838300;29;20026;-79
2023/12/26 20:17:05;;;;;;;0.00;0.00;;;;;;;6.57;100.00;100442.47;4855388;29;20087;-79
2023/12/26 20:19:40;;;;;;;0.00;0.00;;;;;;;6.59;100.00;100453.91;4819596;29;20071;-80
2023/12/26 20:22:05;;;;;;;0.00;0.00;;;;;;;6.50;100.00;100430.06;4838635;29;20066;-77
2023/12/26 20:24:40;;;;;;;0.00;0.00;;;;;;;6.43;100.00;100417.44;4834872;29;20069;-78
2023/12/26 20:27:06;;;;;;;0.00;0.00;;;;;;;6.61;100.00;100445.50;4853202;29;20022;-81
2023/12/26 20:29:32;;;;;;;0.00;0.00;;;;;;;6.74;100.00;100450.69;4837565;29;20038;-80
2023/12/26 20:32:07;;;;;;;0.00;0.00;;;;;;;6.56;100.00;100426.41;4838756;29;20052;-80
2023/12/26 20:34:36;;;;;;;0.00;0.00;;;;;;;6.58;100.00;100429.69;4827270;29;20034;-81
2023/12/26 20:37:02;;;;;;;0.00;0.00;;;;;;;6.62;100.00;100422.72;4842057;29;20045;-78
2023/12/26 20:39:37;;;;;;;0.10;0.10;;;;;;;6.69;100.00;100431.56;4841153;29;20048;-79
2023/12/26 20:42:07;;;;;;;0.00;0.00;;;;;;;6.62;99.57;100409.94;4842317;29;20070;-81
2023/12/26 20:44:32;;;;;;;0.00;0.00;;;;;;;6.82;99.51;100442.16;4834314;29;20125;-79
2023/12/26 20:46:57;;;;;;;0.00;0.00;;;;;;;6.77;100.00;100433.88;4831736;29;20042;-79
2023/12/26 20:49:23;;;;;;;0.00;0.00;;;;;;;6.77;100.00;100423.00;4840561;29;20550;-79
2023/12/26 20:52:00;;;;;;;0.00;0.00;;;;;;;6.93;99.60;100447.81;4835931;29;20073;-78
2023/12/26 20:54:28;;;;;;;0.00;0.00;;;;;;;6.94;99.99;100452.19;4822619;29;20053;-77
2023/12/26 20:56:56;;;;;;;0.00;0.00;;;;;;;6.56;100.00;100377.50;4841861;29;20076;-80
2023/12/26 20:59:34;;;;;;;;;;;;;;;;;;;;;
2023/12/26 21:02:19;;;;;;;;;;;;;;;;;;;;;
2023/12/26 21:04:47;;;;;;;0.00;0.00;;;;;;;6.95;99.41;100432.06;4833292;29;20392;-80
2023/12/26 21:07:12;;;;;;;0.00;0.00;;;;;;;6.93;99.12;100426.06;4827956;29;20063;-78
2023/12/26 21:09:40;;;;;;;0.00;0.00;;;;;;;6.91;98.61;100414.63;4832577;29;20057;-77
2023/12/26 21:12:13;;;;;;;0.00;0.00;;;;;;;7.07;98.41;100441.03;4830800;29;20026;-77
2023/12/26 21:15:07;;;;;;;0.00;0.00;;;;;;;6.87;98.28;100405.28;4842193;29;20083;-81
2023/12/26 21:17:33;;;;;;;0.00;0.00;;;;;;;6.88;98.36;100406.91;4819176;29;20098;-77
2023/12/26 21:19:58;;;;;;;0.00;0.00;;;;;;;7.01;97.94;100424.84;4838063;29;20030;-77
2023/12/26 21:22:24;;;;;;;0.00;0.00;;;;;;;7.04;98.01;100416.19;4821477;29;20383;-77
2023/12/26 21:24:49;;;;;;;0.00;0.00;;;;;;;7.15;97.10;100443.38;4818735;29;20382;-78
2023/12/26 21:27:15;;;;;;;0.00;0.00;;;;;;;7.15;96.92;100437.06;4818547;29;20044;-79
2023/12/26 21:29:53;;;;;;;;;;;;;;;;;;;;;
2023/12/26 21:32:39;;;;;;;0.00;0.00;;;;;;;7.20;97.01;100425.47;4845891;29;20117;-80
2023/12/26 21:35:17;;;;;;;0.00;0.00;;;;;;;6.84;96.78;100367.72;4849294;29;20033;-86
2023/12/26 21:37:45;;;;;;;0.00;0.00;;;;;;;7.03;96.58;100393.63;4832390;29;20042;-84
2023/12/26 21:40:38;;;;;;;;;;;;;;;;;;;;;
2023/12/26 21:43:17;;;;;;;0.00;0.00;;;;;;;6.98;96.66;100371.78;4846263;29;20549;-81
2023/12/26 21:45:50;;;;;;;0.00;0.00;;;;;;;7.24;97.26;100404.88;4832121;29;20105;-80
2023/12/26 21:48:41;;;;;;;0.00;0.00;;;;;;;7.24;97.51;100407.59;4846202;29;20116;-81
2023/12/26 21:51:54;;;;;;;0.00;0.00;;;;;;;7.03;97.68;100366.44;4828223;29;20038;-80
2023/12/26 21:54:20;;;;;;;0.00;0.00;;;;;;;7.03;97.22;100365.63;4825032;29;20118;-80
2023/12/26 21:56:51;;;;;;;0.00;0.00;;;;;;;7.10;97.91;100380.72;4826934;29;20030;-78
2023/12/26 21:59:16;;;;;;;0.00;0.00;;;;;;;6.97;97.56;100361.97;4842394;29;20439;-79
2023/12/26 22:01:52;;;;;;;;;;;;;;;;;;;;;
2023/12/26 22:04:28;;;;;;;;;;;;;;;;;;;;;
2023/12/26 22:09:49;;;;;;;0.10;0.10;;;;;;;7.02;97.63;100353.91;4824616;29;20140;-78
2023/12/26 22:12:16;;;;;;;0.00;0.00;;;;;;;7.05;98.30;100342.53;4830907;29;20547;-77
2023/12/26 22:14:51;;;;;;;0.00;0.00;;;;;;;6.99;98.09;100338.06;4827413;29;20026;-77
2023/12/26 22:17:27;;;;;;;0.00;0.00;;;;;;;7.21;98.03;100367.28;4821074;29;20044;-77
2023/12/26 22:20:00;;;;;;;0.00;0.00;;;;;;;6.94;98.12;100325.22;4836299;29;20026;-77
2023/12/26 22:22:28;;;;;;;0.00;0.00;;;;;;;7.15;98.43;100350.91;4845588;29;20029;-76
2023/12/26 22:25:17;;;;;;;0.00;0.00;;;;;;;7.21;98.52;100350.97;4815543;29;20033;-78
2023/12/26 22:27:45;;;;;;;0.00;0.00;;;;;;;7.35;98.46;100368.63;4827033;29;20117;-77
2023/12/26 22:30:11;;;;;;;0.00;0.00;;;;;;;7.36;98.40;100367.56;4817524;29;20033;-80
2023/12/26 22:32:37;;;;;;;0.00;0.00;;;;;;;7.07;98.46;100312.41;4835024;29;20034;-80
2023/12/26 22:35:25;;;;;;;0.10;0.10;;;;;;;7.16;98.17;100333.50;4829546;29;20045;-78
2023/12/26 22:38:02;;;;;;;0.00;0.00;;;;;;;7.12;98.43;100316.00;4838243;29;20124;-79
2023/12/26 22:41:38;;;;;;;0.00;0.00;;;;;;;7.03;98.07;100303.91;4833759;29;20040;-79
2023/12/26 22:44:03;;;;;;;0.00;0.00;;;;;;;7.19;98.52;100315.06;4830828;29;20022;-77
2023/12/26 22:46:35;;;;;;;0.00;0.00;;;;;;;7.37;99.00;100346.63;4830725;29;20457;-79
2023/12/26 22:49:13;;;;;;;;;;;;;;;;;;;;;
2023/12/26 22:51:39;;;;;;;0.00;0.00;;;;;;;7.25;99.39;100322.22;4818736;29;20030;-78
2023/12/26 22:54:05;;;;;;;0.00;0.00;;;;;;;7.11;100.00;100292.63;4822219;29;20377;-78
2023/12/26 22:57:36;;;;;;;;;;;;;;;;;;;;;
2023/12/26 23:01:03;;;;;;;0.00;0.00;;;;;;;7.10;100.00;100290.97;4835981;29;20030;-81
2023/12/26 23:03:39;;;;;;;0.10;0.10;;;;;;;6.98;100.00;100277.44;4834870;29;20044;-78
2023/12/26 23:06:07;;;;;;;0.00;0.00;;;;;;;7.04;100.00;100291.97;4831206;29;20046;-83
2023/12/26 23:12:08;;;;;;;0.00;0.00;;;;;;;6.98;100.00;100265.75;4813426;29;20100;-79
2023/12/26 23:45:31;;;;;;;0.00;0.00;;;;;;;7.50;100.00;100273.66;4729851;30;20131;-79
2023/12/26 23:48:00;;;;;;;0.00;0.00;;;;;;;7.16;100.00;100192.06;4698375;30;20034;-80
2023/12/26 23:50:30;;;;;;;0.00;0.00;;;;;;;7.49;100.00;100239.34;4682983;30;20038;-79
2023/12/26 23:53:08;;;;;;;0.00;0.00;;;;;;;7.39;100.00;100214.72;4739927;29;20058;-79
2023/12/26 23:55:39;;;;;;;0.00;0.00;;;;;;;7.29;100.00;100181.94;4836799;29;20932;-80
2023/12/26 23:58:12;;;;;;;0.00;0.00;;;;;;;7.49;100.00;100195.81;4849811;29;20472;-80
